Time;durP1;ratioP1;P1;durP2;ratioP2;P2;SDS_P1;SDS_P2;PMS_P1;PMS_P2;Temp;Humidity;BMP_temperature;BMP_pressure;BME280_temperature;BME280_humidity;BME280_pressure;Samples;Min_cycle;Max_cycle;Signal;HPM_P1;HPM_P2
2023/10/06 00:01:40;;;;;;;;;3.00;3.00;;;;;;;;5056436;28;8791;-79
2023/10/06 00:04:08;;;;;;;;;3.25;3.25;;;;;;;;5062888;28;10733;-76
2023/10/06 00:06:37;;;;;;;;;4.00;4.00;;;;;;;;5064478;28;10322;-78
2023/10/06 00:09:25;;;;;;;;;3.50;3.50;;;;;;;;5074552;28;10241;-77
2023/10/06 00:11:55;;;;;;;;;2.50;2.50;;;;;;;;5060857;28;10262;-76
2023/10/06 00:14:38;;;;;;;;;4.00;4.00;;;;;;;;5067044;28;10279;-79
2023/10/06 00:17:09;;;;;;;;;5.00;4.25;;;;;;;;5062045;28;10478;-77
2023/10/06 00:19:40;;;;;;;;;5.25;4.00;;;;;;;;5059019;28;10393;-77
2023/10/06 00:22:17;;;;;;;;;7.25;4.50;;;;;;;;5069135;28;10353;-76
2023/10/06 00:24:50;;;;;;;;;5.00;4.75;;;;;;;;5059104;28;10249;-77
2023/10/06 00:27:24;;;;;;;;;5.00;5.00;;;;;;;;5057025;28;11137;-77
2023/10/06 00:29:54;;;;;;;;;5.75;4.75;;;;;;;;5055972;28;10269;-79
2023/10/06 00:32:22;;;;;;;;;7.50;4.00;;;;;;;;5053370;28;10430;-77
2023/10/06 00:34:50;;;;;;;;;3.75;3.75;;;;;;;;5055826;28;10222;-77
2023/10/06 00:37:22;;;;;;;;;4.00;4.00;;;;;;;;5056717;28;10462;-77
2023/10/06 00:39:54;;;;;;;;;5.25;4.75;;;;;;;;5055959;28;10388;-77
2023/10/06 00:42:22;;;;;;;;;6.00;4.25;;;;;;;;5056021;28;10395;-83
2023/10/06 00:44:49;;;;;;;;;6.00;4.50;;;;;;;;5055043;28;10410;-81
2023/10/06 00:47:17;;;;;;;;;5.00;5.00;;;;;;;;5055139;28;10255;-82
2023/10/06 00:49:45;;;;;;;;;6.00;4.75;;;;;;;;5053601;28;10337;-86
2023/10/06 00:52:15;;;;;;;;;4.25;4.25;;;;;;;;5055126;28;10547;-94
2023/10/06 00:54:43;;;;;;;;;5.75;4.00;;;;;;;;5048729;28;10407;-81
2023/10/06 00:57:17;;;;;;;;;3.25;3.25;;;;;;;;5053053;28;10262;-78
2023/10/06 00:59:45;;;;;;;;;3.00;3.00;;;;;;;;5041034;28;10235;-79
2023/10/06 01:02:12;;;;;;;;;5.50;5.00;;;;;;;;5048389;28;10196;-85
2023/10/06 01:04:45;;;;;;;;;4.50;4.50;;;;;;;;5039812;28;10568;-81
2023/10/06 01:07:15;;;;;;;;;4.00;3.75;;;;;;;;5051185;28;10383;-83
2023/10/06 01:09:57;;;;;;;;;6.50;5.00;;;;;;;;5051260;28;10329;-77
2023/10/06 01:12:26;;;;;;;;;4.75;4.00;;;;;;;;5050795;28;10235;-87
2023/10/06 01:15:05;;;;;;;;;6.00;5.00;;;;;;;;5056008;28;10154;-92
2023/10/06 01:17:33;;;;;;;;;4.00;4.00;;;;;;;;5058030;28;10399;-86
2023/10/06 01:20:03;;;;;;;;;3.75;3.75;;;;;;;;5056368;28;10240;-89
2023/10/06 01:22:41;;;;;;;;;4.00;4.00;;;;;;;;5051460;28;10162;-93
2023/10/06 01:25:13;;;;;;;;;3.00;3.00;;;;;;;;5049964;28;11056;-83
2023/10/06 01:27:43;;;;;;;;;3.00;3.00;;;;;;;;5049783;28;10388;-87
2023/10/06 01:30:18;;;;;;;;;5.50;4.25;;;;;;;;5048423;28;10229;-87
2023/10/06 01:32:46;;;;;;;;;3.00;3.00;;;;;;;;5049505;28;10381;-94
2023/10/06 01:35:13;;;;;;;;;5.50;4.00;;;;;;;;5048756;28;10305;-90
2023/10/06 01:37:43;;;;;;;;;4.00;4.00;;;;;;;;5048937;28;10395;-88
2023/10/06 01:40:35;;;;;;;;;6.00;3.75;;;;;;;;5049511;28;10287;-91
2023/10/06 01:43:09;;;;;;;;;3.00;3.00;;;;;;;;5053175;28;10505;-85
2023/10/06 01:45:43;;;;;;;;;6.25;5.00;;;;;;;;5059144;28;10471;-83
2023/10/06 01:48:24;;;;;;;;;3.25;3.25;;;;;;;;5060323;28;10450;-84
2023/10/06 01:50:50;;;;;;;;;7.25;4.00;;;;;;;;5073489;28;10458;-79
2023/10/06 01:53:19;;;;;;;;;2.00;2.00;;;;;;;;5060170;28;10497;-78
2023/10/06 01:55:49;;;;;;;;;4.00;4.00;;;;;;;;5058884;28;10345;-80
2023/10/06 01:58:28;;;;;;;;;5.00;5.00;;;;;;;;5061278;28;10528;-76
2023/10/06 02:01:05;;;;;;;;;4.75;4.75;;;;;;;;5030000;28;10563;-77
2023/10/06 02:03:40;;;;;;;;;5.75;5.00;;;;;;;;5029853;28;10509;-77
2023/10/06 02:06:13;;;;;;;;;3.25;3.25;;;;;;;;5061151;28;10535;-77
2023/10/06 02:08:54;;;;;;;;;5.00;4.25;;;;;;;;5057738;28;10546;-77
2023/10/06 02:11:28;;;;;;;;;4.00;4.00;;;;;;;;5057372;28;10506;-79
2023/10/06 02:13:57;;;;;;;;;8.50;4.25;;;;;;;;5053914;28;10464;-80
2023/10/06 02:16:26;;;;;;;;;6.00;6.00;;;;;;;;5055440;28;10463;-82
2023/10/06 02:18:54;;;;;;;;;4.75;4.75;;;;;;;;5057040;28;10591;-77
2023/10/06 02:21:24;;;;;;;;;5.75;4.50;;;;;;;;5056320;28;10495;-82
2023/10/06 02:23:53;;;;;;;;;5.50;5.50;;;;;;;;5054192;28;10587;-78
2023/10/06 02:26:23;;;;;;;;;4.75;4.75;;;;;;;;5056276;28;11579;-78
2023/10/06 02:29:11;;;;;;;;;5.25;3.75;;;;;;;;5045537;28;10757;-77
2023/10/06 02:31:43;;;;;;;;;7.25;6.00;;;;;;;;5056331;28;10476;-76
2023/10/06 02:34:21;;;;;;;;;3.00;3.00;;;;;;;;5058371;28;10611;-78
2023/10/06 02:36:53;;;;;;;;;5.00;4.00;;;;;;;;5056021;28;10542;-77
2023/10/06 02:39:38;;;;;;;;;7.00;5.75;;;;;;;;5068006;28;10903;-76
2023/10/06 02:42:13;;;;;;;;;3.00;3.00;;;;;;;;5060927;28;10658;-77
2023/10/06 02:44:44;;;;;;;;;4.25;4.25;;;;;;;;5058637;28;10511;-76
2023/10/06 02:47:13;;;;;;;;;4.75;4.75;;;;;;;;5057683;28;10660;-76
2023/10/06 02:49:48;;;;;;;;;4.75;3.25;;;;;;;;5058696;28;10692;-77
2023/10/06 02:52:20;;;;;;;;;6.50;6.50;;;;;;;;5058897;28;10673;-77
2023/10/06 02:55:04;;;;;;;;;8.75;7.00;;;;;;;;5056584;28;10683;-76
2023/10/06 02:57:50;;;;;;;;;4.50;3.00;;;;;;;;5064127;28;10825;-77
2023/10/06 03:00:38;;;;;;;;;4.75;4.75;;;;;;;;5071916;28;10726;-79
2023/10/06 03:03:12;;;;;;;;;6.00;6.00;;;;;;;;5046407;28;10823;-80
2023/10/06 03:05:49;;;;;;;;;4.25;4.25;;;;;;;;5070830;28;10804;-87
2023/10/06 03:08:39;;;;;;;;;4.00;4.00;;;;;;;;5072805;28;10646;-77
2023/10/06 03:11:41;;;;;;;;;5.00;5.00;;;;;;;;5059199;28;10674;-76
2023/10/06 03:14:14;;;;;;;;;9.00;7.50;;;;;;;;5071643;28;10768;-76
2023/10/06 03:16:43;;;;;;;;;3.25;3.25;;;;;;;;5070295;28;10826;-76
2023/10/06 03:19:12;;;;;;;;;4.00;4.00;;;;;;;;5068425;28;10814;-90
2023/10/06 03:21:45;;;;;;;;;5.25;5.25;;;;;;;;5069866;28;10694;-77
2023/10/06 03:24:31;;;;;;;;;5.00;5.00;;;;;;;;5069057;28;10864;-77
2023/10/06 03:27:12;;;;;;;;;8.25;5.00;;;;;;;;5068103;28;10780;-77
2023/10/06 03:29:53;;;;;;;;;4.50;4.50;;;;;;;;5060008;28;10830;-77
2023/10/06 03:32:33;;;;;;;;;3.50;3.50;;;;;;;;5062646;28;10731;-82
2023/10/06 03:35:12;;;;;;;;;11.00;7.00;;;;;;;;5068251;28;10706;-78
2023/10/06 03:37:44;;;;;;;;;4.25;4.25;;;;;;;;5058721;28;10916;-83
2023/10/06 03:40:23;;;;;;;;;8.25;6.00;;;;;;;;5062466;28;10897;-85
2023/10/06 03:42:52;;;;;;;;;4.00;4.00;;;;;;;;5047129;28;10818;-85
2023/10/06 03:45:26;;;;;;;;;3.00;3.00;;;;;;;;5065279;28;10827;-77
2023/10/06 03:48:08;;;;;;;;;7.50;7.50;;;;;;;;5069623;28;11151;-89
2023/10/06 03:50:38;;;;;;;;;7.25;5.75;;;;;;;;5058355;28;10962;-78
2023/10/06 03:53:07;;;;;;;;;5.00;5.00;;;;;;;;5059200;28;10860;-83
2023/10/06 03:55:39;;;;;;;;;4.75;4.75;;;;;;;;5050292;28;10939;-76
2023/10/06 03:58:08;;;;;;;;;6.00;4.75;;;;;;;;5051148;28;10918;-77
2023/10/06 04:00:38;;;;;;;;;6.75;6.75;;;;;;;;5055980;28;10911;-86
2023/10/06 04:03:06;;;;;;;;;5.00;5.00;;;;;;;;5049493;28;11027;-84
2023/10/06 04:05:37;;;;;;;;;6.00;6.00;;;;;;;;5050622;28;10952;-82
2023/10/06 04:08:07;;;;;;;;;7.50;7.50;;;;;;;;5049382;28;10997;-83
2023/10/06 04:10:36;;;;;;;;;3.00;3.00;;;;;;;;5050700;28;11171;-81
2023/10/06 04:13:05;;;;;;;;;5.50;5.50;;;;;;;;5051681;28;10978;-81
2023/10/06 04:15:36;;;;;;;;;5.75;5.75;;;;;;;;5052865;28;11148;-85
2023/10/06 04:18:04;;;;;;;;;8.00;5.00;;;;;;;;5052195;28;11002;-84
2023/10/06 04:20:32;;;;;;;;;5.00;5.00;;;;;;;;5052355;28;11044;-79
2023/10/06 04:23:02;;;;;;;;;6.25;5.00;;;;;;;;5053152;28;10892;-80
2023/10/06 04:25:29;;;;;;;;;9.25;6.50;;;;;;;;5043288;28;11089;-85
2023/10/06 04:27:56;;;;;;;;;6.50;6.50;;;;;;;;5048806;28;11155;-87
2023/10/06 04:30:25;;;;;;;;;3.25;3.25;;;;;;;;5049354;28;11034;-88
2023/10/06 04:32:54;;;;;;;;;6.50;6.50;;;;;;;;5048405;28;11121;-85
2023/10/06 04:35:24;;;;;;;;;8.75;6.50;;;;;;;;5049085;28;11138;-89
2023/10/06 04:37:52;;;;;;;;;8.00;8.00;;;;;;;;5049285;28;11052;-88
2023/10/06 04:40:20;;;;;;;;;4.00;3.25;;;;;;;;5048850;28;11248;-87
2023/10/06 04:42:48;;;;;;;;;8.00;6.00;;;;;;;;5049894;28;10897;-87
2023/10/06 04:45:15;;;;;;;;;8.75;4.75;;;;;;;;5048988;28;11148;-86
2023/10/06 04:47:42;;;;;;;;;5.00;5.00;;;;;;;;5055160;28;11080;-78
2023/10/06 04:50:13;;;;;;;;;5.25;5.25;;;;;;;;5052509;28;11060;-86
2023/10/06 04:52:44;;;;;;;;;7.00;7.00;;;;;;;;5050780;28;11994;-89
2023/10/06 04:55:14;;;;;;;;;8.00;6.50;;;;;;;;5049195;28;12214;-83
2023/10/06 04:57:42;;;;;;;;;7.75;7.75;;;;;;;;5050358;28;11241;-80
2023/10/06 05:00:15;;;;;;;;;6.25;6.25;;;;;;;;5052150;28;11072;-85
2023/10/06 05:02:44;;;;;;;;;5.00;5.00;;;;;;;;5050600;28;11871;-88
2023/10/06 05:05:13;;;;;;;;;7.75;6.00;;;;;;;;5048787;28;11140;-86
2023/10/06 05:07:41;;;;;;;;;5.75;5.75;;;;;;;;5049402;28;11101;-87
2023/10/06 05:10:10;;;;;;;;;8.00;5.25;;;;;;;;5047679;28;11928;-86
2023/10/06 05:12:38;;;;;;;;;6.50;6.50;;;;;;;;5048412;28;11153;-85
2023/10/06 05:15:09;;;;;;;;;4.25;3.25;;;;;;;;5049074;28;11590;-85
2023/10/06 05:17:39;;;;;;;;;5.50;5.00;;;;;;;;5052624;28;11981;-85
2023/10/06 05:20:19;;;;;;;;;8.75;7.00;;;;;;;;5041653;28;11052;-86
2023/10/06 05:22:50;;;;;;;;;6.50;6.50;;;;;;;;5051297;28;11368;-87
2023/10/06 05:25:19;;;;;;;;;9.50;9.50;;;;;;;;5048510;28;11231;-84
2023/10/06 05:27:47;;;;;;;;;5.50;4.50;;;;;;;;5046950;28;11351;-81
2023/10/06 05:30:14;;;;;;;;;8.00;8.00;;;;;;;;5048066;28;11149;-80
2023/10/06 05:32:42;;;;;;;;;5.00;5.00;;;;;;;;5049246;28;11185;-79
2023/10/06 05:35:13;;;;;;;;;3.75;3.75;;;;;;;;5049057;28;11055;-82
2023/10/06 05:37:42;;;;;;;;;7.75;7.75;;;;;;;;5046899;28;11070;-79
2023/10/06 05:40:16;;;;;;;;;8.25;8.00;;;;;;;;5059093;28;11506;-77
2023/10/06 05:42:49;;;;;;;;;10.00;9.25;;;;;;;;5047519;28;11471;-83
2023/10/06 05:45:18;;;;;;;;;8.25;7.50;;;;;;;;5047845;28;11515;-85
2023/10/06 05:47:46;;;;;;;;;7.00;5.00;;;;;;;;5050171;28;11525;-83
2023/10/06 05:50:18;;;;;;;;;8.25;6.00;;;;;;;;5051416;28;11223;-75
2023/10/06 05:52:51;;;;;;;;;9.00;7.25;;;;;;;;5051469;28;11528;-85
2023/10/06 05:55:20;;;;;;;;;7.75;7.75;;;;;;;;5049576;28;11140;-81
2023/10/06 05:57:52;;;;;;;;;7.75;7.75;;;;;;;;5051166;28;11594;-76
2023/10/06 06:00:24;;;;;;;;;10.00;8.50;;;;;;;;5050764;28;11243;-77
2023/10/06 06:02:53;;;;;;;;;7.00;7.00;;;;;;;;5052406;28;11208;-76
2023/10/06 06:05:20;;;;;;;;;8.50;8.00;;;;;;;;5053078;28;11200;-74
2023/10/06 06:07:51;;;;;;;;;8.00;8.00;;;;;;;;5052970;28;11459;-83
2023/10/06 06:10:23;;;;;;;;;9.00;8.00;;;;;;;;5048185;28;11560;-83
2023/10/06 06:12:50;;;;;;;;;6.75;6.75;;;;;;;;5047945;28;12253;-76
2023/10/06 06:15:17;;;;;;;;;5.50;5.50;;;;;;;;5048811;28;11579;-76
2023/10/06 06:17:45;;;;;;;;;7.00;6.75;;;;;;;;5048772;28;11355;-74
2023/10/06 06:20:21;;;;;;;;;10.75;9.00;;;;;;;;5051476;28;11163;-74
2023/10/06 06:22:53;;;;;;;;;5.25;5.25;;;;;;;;5050286;28;11283;-81
2023/10/06 06:25:22;;;;;;;;;3.25;1.75;;;;;;;;5052390;28;11119;-81
2023/10/06 06:27:54;;;;;;;;;2.00;2.00;;;;;;;;5051951;28;11253;-79
2023/10/06 06:30:21;;;;;;;;;7.00;7.00;;;;;;;;5052607;28;11004;-90
2023/10/06 06:32:49;;;;;;;;;9.50;7.50;;;;;;;;5051511;28;11101;-74
2023/10/06 06:35:19;;;;;;;;;8.25;7.00;;;;;;;;5052447;28;11152;-76
2023/10/06 06:37:50;;;;;;;;;11.25;9.25;;;;;;;;5052934;28;11118;-86
2023/10/06 06:40:19;;;;;;;;;10.25;6.25;;;;;;;;5053033;28;11199;-83
2023/10/06 06:42:49;;;;;;;;;7.25;7.25;;;;;;;;5041578;28;11001;-87
2023/10/06 06:45:17;;;;;;;;;8.00;8.00;;;;;;;;5053270;28;10989;-89
2023/10/06 06:47:44;;;;;;;;;10.00;6.25;;;;;;;;5055310;28;11074;-83
2023/10/06 06:50:13;;;;;;;;;10.50;9.00;;;;;;;;5055529;28;10965;-77
2023/10/06 06:52:40;;;;;;;;;9.50;9.50;;;;;;;;5056610;28;11779;-83
2023/10/06 06:55:12;;;;;;;;;9.50;9.50;;;;;;;;5051299;28;10914;-87
2023/10/06 06:57:43;;;;;;;;;11.00;7.50;;;;;;;;5050917;28;10818;-79
2023/10/06 07:00:16;;;;;;;;;10.50;9.50;;;;;;;;5050391;28;11655;-82
2023/10/06 07:02:44;;;;;;;;;11.25;10.00;;;;;;;;5051369;28;11112;-77
2023/10/06 07:05:13;;;;;;;;;7.50;7.50;;;;;;;;5051157;28;10811;-74
2023/10/06 07:07:43;;;;;;;;;15.75;9.00;;;;;;;;5051004;28;10750;-86
2023/10/06 07:10:13;;;;;;;;;12.75;11.25;;;;;;;;5050812;28;10667;-81
2023/10/06 07:12:40;;;;;;;;;11.75;10.00;;;;;;;;5050195;28;10642;-76
2023/10/06 07:15:14;;;;;;;;;9.25;9.25;;;;;;;;5050167;28;11492;-79
2023/10/06 07:17:46;;;;;;;;;10.00;10.00;;;;;;;;5051656;28;10767;-83
2023/10/06 07:20:17;;;;;;;;;12.50;12.50;;;;;;;;5053392;28;10669;-81
2023/10/06 07:22:48;;;;;;;;;11.00;9.75;;;;;;;;5053718;28;10672;-84
2023/10/06 07:25:16;;;;;;;;;10.75;10.75;;;;;;;;5051154;28;11238;-75
2023/10/06 07:27:47;;;;;;;;;14.75;11.25;;;;;;;;5050235;28;10434;-73
2023/10/06 07:30:22;;;;;;;;;9.25;9.25;;;;;;;;5049680;28;11228;-79
2023/10/06 07:32:52;;;;;;;;;13.75;13.50;;;;;;;;5049216;28;11168;-73
2023/10/06 07:35:25;;;;;;;;;11.75;11.75;;;;;;;;5049315;28;10604;-76
2023/10/06 07:37:53;;;;;;;;;13.75;13.75;;;;;;;;5050411;28;10410;-75
2023/10/06 07:40:21;;;;;;;;;14.25;11.50;;;;;;;;5051392;28;10374;-73
2023/10/06 07:42:49;;;;;;;;;11.75;11.75;;;;;;;;5040991;28;10359;-71
2023/10/06 07:45:18;;;;;;;;;14.50;13.75;;;;;;;;5050909;28;10340;-72
2023/10/06 07:47:46;;;;;;;;;13.50;12.50;;;;;;;;5052220;28;10287;-73
2023/10/06 07:50:16;;;;;;;;;20.75;16.25;;;;;;;;5053036;28;10224;-75
2023/10/06 07:52:44;;;;;;;;;16.00;16.00;;;;;;;;5053441;28;10142;-79
2023/10/06 07:55:12;;;;;;;;;16.25;16.00;;;;;;;;5049545;28;10017;-79
2023/10/06 07:57:41;;;;;;;;;22.25;15.75;;;;;;;;5049009;28;9887;-78
2023/10/06 08:00:10;;;;;;;;;16.50;16.25;;;;;;;;5048630;28;9917;-78
2023/10/06 08:02:39;;;;;;;;;14.25;14.25;;;;;;;;5049211;28;9770;-76
2023/10/06 08:05:08;;;;;;;;;16.50;16.00;;;;;;;;5049593;28;9936;-74
2023/10/06 08:07:38;;;;;;;;;17.75;16.50;;;;;;;;5049017;28;9880;-73
2023/10/06 08:10:06;;;;;;;;;17.25;17.25;;;;;;;;5048971;28;9746;-76
2023/10/06 08:12:34;;;;;;;;;20.25;18.50;;;;;;;;5047727;28;9605;-78
2023/10/06 08:15:02;;;;;;;;;17.00;14.50;;;;;;;;5048965;28;9615;-79
2023/10/06 08:17:31;;;;;;;;;16.75;14.50;;;;;;;;5050087;28;10431;-78
2023/10/06 08:19:58;;;;;;;;;19.25;17.50;;;;;;;;5053608;28;9417;-83
2023/10/06 08:22:25;;;;;;;;;15.00;14.00;;;;;;;;5050279;28;9467;-81
2023/10/06 08:24:54;;;;;;;;;14.33;13.33;;;;;;;;5047847;28;9341;-84
2023/10/06 08:27:23;;;;;;;;;19.33;19.33;;;;;;;;5060156;28;9355;-77
2023/10/06 08:29:52;;;;;;;;;14.33;14.33;;;;;;;;5048914;28;10059;-82
2023/10/06 08:32:19;;;;;;;;;16.67;15.33;;;;;;;;5048457;28;9054;-79
2023/10/06 08:34:47;;;;;;;;;14.25;12.50;;;;;;;;5035409;28;9015;-77
2023/10/06 08:37:15;;;;;;;;;14.33;13.00;;;;;;;;5049199;28;8834;-77
2023/10/06 08:39:44;;;;;;;;;17.50;17.50;;;;;;;;5049214;28;8950;-80
2023/10/06 08:42:14;;;;;;;;;14.75;14.00;;;;;;;;5049180;28;8842;-82
2023/10/06 08:44:44;;;;;;;;;18.00;16.25;;;;;;;;5049479;28;8979;-83
2023/10/06 08:47:14;;;;;;;;;12.25;12.25;;;;;;;;5047303;28;8856;-82
2023/10/06 08:49:42;;;;;;;;;14.50;13.00;;;;;;;;5048991;28;8853;-80
2023/10/06 08:52:10;;;;;;;;;16.50;15.00;;;;;;;;5048014;28;8879;-83
2023/10/06 08:54:38;;;;;;;;;18.75;16.75;;;;;;;;5048385;28;8864;-77
2023/10/06 08:57:05;;;;;;;;;15.00;14.75;;;;;;;;5048023;28;8842;-84
2023/10/06 08:59:34;;;;;;;;;16.75;14.75;;;;;;;;5048555;28;8837;-76
2023/10/06 09:02:02;;;;;;;;;20.25;17.50;;;;;;;;5047656;28;8814;-81
2023/10/06 09:04:37;;;;;;;;;14.50;13.00;;;;;;;;5048465;28;8850;-82
2023/10/06 09:07:12;;;;;;;;;15.50;14.00;;;;;;;;5036015;28;8853;-78
2023/10/06 09:09:40;;;;;;;;;17.75;15.50;;;;;;;;5047762;28;8877;-77
2023/10/06 09:12:09;;;;;;;;;13.75;12.75;;;;;;;;5048230;28;8857;-72
2023/10/06 09:14:54;;;;;;;;;11.00;11.00;;;;;;;;5047285;28;8863;-74
2023/10/06 09:17:36;;;;;;;;;15.25;15.25;;;;;;;;5048189;28;8853;-75
2023/10/06 09:20:04;;;;;;;;;18.75;15.25;;;;;;;;5037576;28;8838;-73
2023/10/06 09:22:45;;;;;;;;;13.75;13.00;;;;;;;;5048220;28;8837;-74
2023/10/06 09:25:12;;;;;;;;;6.75;6.75;;;;;;;;5050652;28;8876;-72
2023/10/06 09:27:41;;;;;;;;;12.00;10.75;;;;;;;;5050632;28;8970;-73
2023/10/06 09:30:12;;;;;;;;;13.00;11.75;;;;;;;;5049914;28;8864;-73
2023/10/06 09:32:39;;;;;;;;;11.75;11.75;;;;;;;;5050363;28;8911;-74
2023/10/06 09:35:21;;;;;;;;;10.00;10.00;;;;;;;;5051996;28;8980;-77
2023/10/06 09:37:51;;;;;;;;;10.00;10.00;;;;;;;;5048318;28;8914;-79
2023/10/06 09:40:22;;;;;;;;;9.75;8.50;;;;;;;;5047212;28;8854;-77
2023/10/06 09:42:50;;;;;;;;;14.50;12.25;;;;;;;;5047534;28;8853;-75
2023/10/06 09:45:23;;;;;;;;;9.50;9.00;;;;;;;;5046796;28;8875;-73
2023/10/06 09:47:56;;;;;;;;;11.25;11.25;;;;;;;;5049036;28;8861;-83
2023/10/06 09:50:24;;;;;;;;;10.25;8.75;;;;;;;;5052098;28;8850;-76
2023/10/06 09:52:52;;;;;;;;;8.00;8.00;;;;;;;;5048060;28;8936;-82
2023/10/06 09:55:21;;;;;;;;;10.00;8.75;;;;;;;;5047732;28;8885;-73
2023/10/06 09:57:50;;;;;;;;;10.50;10.50;;;;;;;;5047836;28;8846;-77
2023/10/06 10:00:21;;;;;;;;;9.00;9.00;;;;;;;;5051214;28;8880;-77
2023/10/06 10:02:53;;;;;;;;;8.25;7.00;;;;;;;;5051636;28;8858;-79
2023/10/06 10:05:22;;;;;;;;;12.25;11.50;;;;;;;;5051581;28;8845;-76
2023/10/06 10:07:49;;;;;;;;;7.25;6.25;;;;;;;;5051854;28;8903;-79
2023/10/06 10:10:22;;;;;;;;;9.75;9.75;;;;;;;;5051835;28;8875;-84
2023/10/06 10:13:27;;;;;;;;;9.75;9.75;;;;;;;;5051607;28;8961;-77
2023/10/06 10:16:13;;;;;;;;;7.75;7.75;;;;;;;;5035093;28;8876;-83
2023/10/06 10:18:41;;;;;;;;;8.75;7.50;;;;;;;;5043218;28;9294;-79
2023/10/06 10:21:11;;;;;;;;;7.50;7.50;;;;;;;;5057410;28;8872;-78
2023/10/06 10:23:40;;;;;;;;;8.40;7.00;;;;;;;;5055197;28;9566;-83
2023/10/06 10:26:16;;;;;;;;;10.75;8.75;;;;;;;;5052902;28;8854;-84
2023/10/06 10:28:44;;;;;;;;;11.50;10.25;;;;;;;;5051034;28;8857;-81
2023/10/06 10:31:17;;;;;;;;;8.60;8.60;;;;;;;;5050200;28;8802;-82
2023/10/06 10:33:46;;;;;;;;;10.40;7.60;;;;;;;;5051778;28;9725;-81
2023/10/06 10:36:21;;;;;;;;;9.00;7.80;;;;;;;;5051541;28;8972;-80
2023/10/06 10:38:58;;;;;;;;;5.20;5.20;;;;;;;;5050606;28;8849;-79
2023/10/06 10:41:27;;;;;;;;;8.40;8.00;;;;;;;;5050717;28;8884;-86
2023/10/06 10:43:56;;;;;;;;;5.60;5.60;;;;;;;;5050419;28;8849;-77
2023/10/06 10:46:41;;;;;;;;;11.20;9.20;;;;;;;;5050643;28;8865;-79
2023/10/06 10:49:11;;;;;;;;;7.80;6.60;;;;;;;;5052342;28;8862;-79
2023/10/06 10:52:02;;;;;;;;;8.40;8.40;;;;;;;;5053767;28;8857;-81
2023/10/06 10:54:33;;;;;;;;;7.40;7.40;;;;;;;;5040407;28;8946;-79
2023/10/06 10:57:09;;;;;;;;;5.40;5.40;;;;;;;;5052021;28;8853;-80
2023/10/06 11:00:15;;;;;;;;;8.20;8.20;;;;;;;;5050728;28;9628;-83
2023/10/06 11:03:02;;;;;;;;;7.40;7.40;;;;;;;;5061944;28;8891;-80
2023/10/06 11:05:31;;;;;;;;;10.60;8.20;;;;;;;;5070456;28;8890;-76
2023/10/06 11:07:59;;;;;;;;;7.00;7.00;;;;;;;;5070248;28;8935;-86
2023/10/06 11:10:27;;;;;;;;;6.40;6.40;;;;;;;;5072021;28;8980;-74
2023/10/06 11:13:12;;;;;;;;;3.60;3.60;;;;;;;;5072916;28;8851;-73
2023/10/06 11:15:40;;;;;;;;;6.80;5.80;;;;;;;;5073116;28;8940;-77
2023/10/06 11:18:09;;;;;;;;;7.20;6.40;;;;;;;;5072716;28;8850;-76
2023/10/06 11:20:39;;;;;;;;;3.60;3.60;;;;;;;;5074018;28;8843;-73
2023/10/06 11:23:06;;;;;;;;;7.20;7.20;;;;;;;;5073582;28;8935;-79
2023/10/06 11:25:36;;;;;;;;;12.00;6.00;;;;;;;;5072828;28;8920;-82
2023/10/06 11:28:04;;;;;;;;;4.40;4.40;;;;;;;;5070318;28;8908;-75
2023/10/06 11:30:38;;;;;;;;;6.20;5.00;;;;;;;;5065013;28;8762;-79
2023/10/06 11:33:07;;;;;;;;;8.00;6.00;;;;;;;;5049822;28;8853;-82
2023/10/06 11:35:36;;;;;;;;;6.40;4.60;;;;;;;;5049895;28;8863;-78
2023/10/06 11:38:05;;;;;;;;;6.20;6.00;;;;;;;;5049978;28;8861;-82
2023/10/06 11:40:34;;;;;;;;;5.20;5.20;;;;;;;;5049507;28;8865;-79
2023/10/06 11:43:12;;;;;;;;;5.40;5.40;;;;;;;;5049781;28;8943;-77
2023/10/06 11:45:41;;;;;;;;;5.60;5.60;;;;;;;;5049368;28;8825;-80
2023/10/06 11:48:24;;;;;;;;;4.40;4.40;;;;;;;;5050217;28;8845;-76
2023/10/06 11:51:00;;;;;;;;;8.80;5.80;;;;;;;;5049442;28;9016;-79
2023/10/06 11:53:27;;;;;;;;;4.40;3.80;;;;;;;;5049409;28;8891;-79
2023/10/06 11:56:06;;;;;;;;;6.00;4.40;;;;;;;;5053239;28;8861;-79
2023/10/06 11:58:36;;;;;;;;;4.80;4.80;;;;;;;;5049518;28;8874;-73
2023/10/06 12:01:04;;;;;;;;;4.60;4.60;;;;;;;;5049716;28;9556;-79
2023/10/06 12:03:39;;;;;;;;;6.20;4.40;;;;;;;;5049436;28;8948;-79
2023/10/06 12:06:11;;;;;;;;;7.20;6.40;;;;;;;;5049425;28;8869;-76
2023/10/06 12:08:43;;;;;;;;;2.80;1.60;;;;;;;;5049189;28;8903;-81
2023/10/06 12:11:12;;;;;;;;;6.40;6.20;;;;;;;;5048819;28;9009;-75
2023/10/06 12:13:39;;;;;;;;;4.80;3.40;;;;;;;;5041706;28;8856;-75
2023/10/06 12:16:13;;;;;;;;;8.00;6.80;;;;;;;;5043887;28;8877;-80
2023/10/06 12:18:43;;;;;;;;;5.80;5.80;;;;;;;;5049028;28;8896;-79
2023/10/06 12:21:13;;;;;;;;;6.60;5.20;;;;;;;;5049369;28;9575;-81
2023/10/06 12:23:41;;;;;;;;;6.40;6.40;;;;;;;;5048857;28;8869;-76
2023/10/06 12:26:10;;;;;;;;;4.80;4.20;;;;;;;;5049781;28;8888;-73
2023/10/06 12:28:42;;;;;;;;;5.80;5.80;;;;;;;;5051670;28;8868;-81
2023/10/06 12:31:11;;;;;;;;;7.60;6.80;;;;;;;;5048608;28;8794;-78
2023/10/06 12:33:38;;;;;;;;;8.20;5.80;;;;;;;;5049168;28;8853;-78
2023/10/06 12:36:08;;;;;;;;;4.20;4.20;;;;;;;;5048546;28;8850;-78
2023/10/06 12:38:37;;;;;;;;;8.60;5.20;;;;;;;;5048224;28;8865;-74
2023/10/06 12:41:08;;;;;;;;;1.20;1.20;;;;;;;;5036858;28;8900;-77
2023/10/06 12:43:36;;;;;;;;;7.20;6.20;;;;;;;;5048065;28;8960;-77
2023/10/06 12:46:04;;;;;;;;;5.00;5.00;;;;;;;;5048106;28;8831;-81
2023/10/06 12:48:31;;;;;;;;;7.20;7.20;;;;;;;;5048367;28;8954;-78
2023/10/06 12:50:58;;;;;;;;;2.80;2.80;;;;;;;;5049499;28;8886;-82
2023/10/06 12:53:26;;;;;;;;;5.40;5.40;;;;;;;;5049806;28;8845;-78
2023/10/06 12:55:57;;;;;;;;;4.80;4.40;;;;;;;;5051508;28;8861;-78
2023/10/06 12:58:24;;;;;;;;;2.80;2.80;;;;;;;;5051218;28;8868;-75
2023/10/06 13:00:51;;;;;;;;;8.20;6.60;;;;;;;;5050967;28;8921;-74
2023/10/06 13:03:19;;;;;;;;;6.20;4.20;;;;;;;;5050993;28;8990;-78
2023/10/06 13:05:47;;;;;;;;;5.20;4.00;;;;;;;;5053358;28;8873;-82
2023/10/06 13:08:16;;;;;;;;;4.40;4.40;;;;;;;;5048396;28;8859;-82
2023/10/06 13:10:45;;;;;;;;;3.80;3.80;;;;;;;;5048788;28;8849;-81
2023/10/06 13:13:16;;;;;;;;;4.20;4.20;;;;;;;;5048444;28;8861;-79
2023/10/06 13:15:45;;;;;;;;;5.20;5.20;;;;;;;;5048033;28;8884;-78
2023/10/06 13:18:12;;;;;;;;;5.40;4.80;;;;;;;;5048094;28;8946;-81
2023/10/06 13:20:40;;;;;;;;;5.00;2.40;;;;;;;;5048124;28;8854;-83
2023/10/06 13:23:07;;;;;;;;;4.20;4.20;;;;;;;;5047155;28;8837;-84
2023/10/06 13:25:37;;;;;;;;;3.20;2.20;;;;;;;;5048164;28;8863;-81
2023/10/06 13:28:05;;;;;;;;;5.00;3.80;;;;;;;;5047613;28;8872;-81
2023/10/06 13:30:36;;;;;;;;;2.00;2.00;;;;;;;;5048469;28;8902;-74
2023/10/06 13:33:04;;;;;;;;;4.40;4.40;;;;;;;;5049292;28;8869;-77
2023/10/06 13:35:31;;;;;;;;;3.60;3.60;;;;;;;;5048291;28;9015;-75
2023/10/06 13:37:58;;;;;;;;;3.60;3.60;;;;;;;;5040742;28;8838;-78
2023/10/06 13:40:25;;;;;;;;;4.80;4.80;;;;;;;;5047209;28;8837;-82
2023/10/06 13:42:53;;;;;;;;;2.40;2.40;;;;;;;;5047935;28;8850;-74
2023/10/06 13:45:23;;;;;;;;;4.40;4.40;;;;;;;;5047453;28;8865;-85
2023/10/06 13:48:03;;;;;;;;;;;;;;;;;;;;;
2023/10/06 13:50:31;;;;;;;;;3.00;3.00;;;;;;;;5047325;28;8861;-76
2023/10/06 13:52:58;;;;;;;;;3.20;3.20;;;;;;;;5047767;28;9763;-85
2023/10/06 13:55:26;;;;;;;;;5.00;3.40;;;;;;;;5047687;28;8849;-75
2023/10/06 13:57:54;;;;;;;;;2.60;2.60;;;;;;;;5048590;28;8860;-81
2023/10/06 14:00:29;;;;;;;;;3.60;2.20;;;;;;;;5048028;28;8877;-79
2023/10/06 14:02:59;;;;;;;;;4.40;3.20;;;;;;;;5051810;28;8861;-75
2023/10/06 14:05:30;;;;;;;;;2.20;2.20;;;;;;;;5049714;28;8998;-79
2023/10/06 14:07:59;;;;;;;;;5.60;2.80;;;;;;;;5049051;28;8857;-83
2023/10/06 14:10:31;;;;;;;;;3.00;3.00;;;;;;;;5047289;28;8858;-80
2023/10/06 14:13:05;;;;;;;;;3.80;3.00;;;;;;;;5046480;28;8854;-83
2023/10/06 14:15:41;;;;;;;;;2.00;2.00;;;;;;;;5047199;28;8857;-75
2023/10/06 14:18:12;;;;;;;;;2.20;2.20;;;;;;;;5045800;28;8857;-81
2023/10/06 14:20:40;;;;;;;;;3.20;3.20;;;;;;;;5047157;28;8879;-80
2023/10/06 14:23:11;;;;;;;;;3.40;3.00;;;;;;;;5047461;28;8853;-77
2023/10/06 14:25:38;;;;;;;;;2.80;2.20;;;;;;;;5046855;28;8996;-75
2023/10/06 14:28:09;;;;;;;;;3.60;0.60;;;;;;;;5047118;28;8853;-81
2023/10/06 14:30:41;;;;;;;;;3.60;2.40;;;;;;;;5047043;28;8785;-75
2023/10/06 14:33:17;;;;;;;;;3.60;2.20;;;;;;;;5048621;28;8943;-77
2023/10/06 14:35:53;;;;;;;;;2.40;0.40;;;;;;;;5050055;28;8881;-81
2023/10/06 14:46:39;;;;;;;;;2.80;1.80;;;;;;;;5054155;28;8837;-75
2023/10/06 14:49:12;;;;;;;;;1.00;1.00;;;;;;;;5056505;28;8903;-78
2023/10/06 14:51:41;;;;;;;;;2.60;2.60;;;;;;;;5051859;28;9020;-72
2023/10/06 14:54:09;;;;;;;;;2.20;2.20;;;;;;;;5038328;28;8987;-83
2023/10/06 14:56:37;;;;;;;;;3.80;2.00;;;;;;;;5049928;28;8845;-71
2023/10/06 14:59:08;;;;;;;;;2.60;2.60;;;;;;;;5050435;28;8866;-77
2023/10/06 15:01:36;;;;;;;;;3.80;3.80;;;;;;;;5049293;28;8793;-73
2023/10/06 15:04:05;;;;;;;;;0.00;0.00;;;;;;;;5050694;28;8853;-73
2023/10/06 15:06:34;;;;;;;;;3.60;2.20;;;;;;;;5050786;28;10397;-73
2023/10/06 15:09:01;;;;;;;;;2.80;2.80;;;;;;;;5050645;28;8841;-78
2023/10/06 15:11:29;;;;;;;;;2.00;2.00;;;;;;;;5049727;28;8907;-74
2023/10/06 15:13:56;;;;;;;;;2.20;2.20;;;;;;;;5050527;28;8842;-75
2023/10/06 15:16:23;;;;;;;;;3.20;3.20;;;;;;;;5050187;28;8853;-74
2023/10/06 15:18:50;;;;;;;;;2.80;1.60;;;;;;;;5050169;28;8863;-73